createdAt,value
2019-03-05T00:02:12.835Z,12.47
2019-03-05T00:04:43.194Z,15.60
2019-03-05T00:07:12.628Z,15.57
2019-03-05T00:09:42.131Z,11.90
2019-03-05T00:12:11.738Z,21.53
2019-03-05T00:14:41.720Z,10.43
2019-03-05T00:17:11.200Z,12.53
2019-03-05T00:19:40.636Z,11.43
2019-03-05T00:22:10.094Z,14.30
2019-03-05T00:25:06.808Z,11.33
2019-03-05T00:28:06.449Z,13.30
2019-03-05T00:30:45.549Z,10.87
2019-03-05T00:33:45.602Z,11.10
2019-03-05T00:36:40.754Z,12.43
2019-03-05T00:39:25.701Z,10.60
2019-03-05T00:42:44.025Z,11.97
2019-03-05T00:45:26.892Z,15.93
2019-03-05T00:48:30.190Z,11.20
2019-03-05T00:51:37.490Z,10.13
2019-03-05T00:54:54.245Z,13.40
2019-03-05T00:57:47.296Z,8.17
2019-03-05T01:00:47.594Z,9.43
2019-03-05T01:04:10.130Z,8.53
2019-03-05T01:06:40.010Z,12.20
2019-03-05T01:09:17.299Z,14.70
2019-03-05T01:11:47.369Z,9.20
2019-03-05T01:14:17.429Z,10.67
2019-03-05T01:16:47.500Z,12.00
2019-03-05T01:19:16.930Z,12.47
2019-03-05T01:21:46.361Z,8.90
2019-03-05T01:24:15.818Z,11.53
2019-03-05T01:26:45.344Z,14.33
2019-03-05T01:29:14.769Z,11.73
2019-03-05T01:32:05.985Z,14.60
2019-03-05T01:34:40.651Z,9.73
2019-03-05T01:37:10.202Z,11.60
2019-03-05T01:39:55.099Z,8.07
2019-03-05T01:42:24.532Z,14.63
2019-03-05T01:44:53.957Z,13.23
2019-03-05T01:47:23.444Z,10.73
2019-03-05T01:49:52.846Z,7.13
2019-03-05T01:52:22.314Z,10.53
2019-03-05T01:54:51.788Z,15.30
2019-03-05T01:57:21.691Z,13.97
2019-03-05T01:59:51.427Z,9.93
2019-03-05T02:02:21.032Z,12.43
2019-03-05T02:04:50.739Z,17.10
2019-03-05T02:07:20.449Z,14.90
2019-03-05T02:09:50.102Z,13.10
2019-03-05T02:12:19.559Z,13.63
2019-03-05T02:14:49.418Z,9.20
2019-03-05T02:17:18.875Z,5.57
2019-03-05T02:19:49.764Z,14.27
2019-03-05T02:22:40.212Z,13.73
2019-03-05T02:25:19.610Z,8.20
2019-03-05T02:28:35.136Z,10.60
2019-03-05T02:31:13.376Z,16.83
2019-03-05T02:34:17.166Z,10.30
2019-03-05T02:37:30.409Z,13.13
2019-03-05T02:40:32.075Z,8.90
2019-03-05T02:43:48.508Z,9.93
2019-03-05T02:46:50.082Z,17.17
2019-03-05T02:49:43.070Z,15.53
2019-03-05T02:52:56.206Z,12.57
2019-03-05T02:55:56.537Z,12.97
2019-03-05T02:58:24.345Z,16.50
2019-03-05T03:01:10.643Z,11.73
2019-03-05T03:03:43.954Z,9.93
2019-03-05T03:06:17.675Z,13.10
2019-03-05T03:08:47.134Z,9.30
2019-03-05T03:11:16.555Z,10.97
2019-03-05T03:13:46.050Z,10.33
2019-03-05T03:16:15.452Z,14.70
2019-03-05T03:18:45.011Z,13.00
2019-03-05T03:21:14.431Z,8.97
2019-03-05T03:23:44.237Z,7.30
2019-03-05T03:26:13.683Z,10.00
2019-03-05T03:28:43.557Z,6.80
2019-03-05T03:31:13.743Z,7.87
2019-03-05T03:33:43.268Z,6.40
2019-03-05T03:36:12.699Z,7.60
2019-03-05T03:38:42.220Z,12.07
2019-03-05T03:41:11.762Z,6.30
2019-03-05T03:43:41.580Z,4.50
2019-03-05T03:46:11.014Z,5.83
2019-03-05T03:48:40.905Z,3.70
2019-03-05T03:51:11.212Z,5.13
2019-03-05T03:53:40.696Z,10.10
2019-03-05T03:56:10.193Z,12.03
2019-03-05T03:58:39.641Z,7.37
2019-03-05T04:01:09.284Z,12.73
2019-03-05T04:03:38.706Z,8.07
2019-03-05T04:06:08.347Z,6.10
2019-03-05T04:08:37.797Z,8.63
2019-03-05T04:11:07.210Z,9.23
2019-03-05T04:13:36.714Z,9.77
2019-03-05T04:16:06.207Z,6.73
2019-03-05T04:18:35.650Z,9.03
2019-03-05T04:21:05.152Z,6.10
2019-03-05T04:23:35.162Z,9.10
2019-03-05T04:26:04.627Z,10.40
2019-03-05T04:28:34.100Z,7.53
2019-03-05T04:31:03.994Z,11.97
2019-03-05T04:33:33.458Z,7.00
2019-03-05T04:36:02.862Z,14.00
2019-03-05T04:38:32.634Z,10.13
2019-03-05T04:41:02.059Z,9.10
2019-03-05T04:43:31.506Z,8.50
2019-03-05T04:46:10.721Z,10.63
2019-03-05T04:48:40.758Z,8.00
2019-03-05T04:51:29.224Z,8.60
2019-03-05T04:53:59.681Z,12.03
2019-03-05T04:56:29.658Z,6.37
2019-03-05T04:58:59.132Z,10.93
2019-03-05T05:01:28.558Z,10.20
2019-03-05T05:03:58.324Z,12.30
2019-03-05T05:06:27.930Z,7.77
2019-03-05T05:08:57.381Z,8.23
2019-03-05T05:11:27.114Z,7.50
2019-03-05T05:13:56.948Z,10.90
2019-03-05T05:16:26.795Z,6.73
2019-03-05T05:18:56.838Z,9.27
2019-03-05T05:21:26.304Z,6.65
2019-03-05T05:23:55.898Z,5.97
2019-03-05T05:26:25.783Z,10.83
2019-03-05T05:28:55.634Z,9.77
2019-03-05T05:31:25.082Z,10.27
2019-03-05T05:33:54.497Z,11.00
2019-03-05T05:36:24.519Z,9.07
2019-03-05T05:38:54.010Z,9.00
2019-03-05T05:41:23.770Z,10.53
2019-03-05T05:43:53.204Z,7.70
2019-03-05T05:46:22.671Z,7.50
2019-03-05T05:48:52.366Z,6.10
2019-03-05T05:51:21.820Z,7.43
2019-03-05T05:53:51.249Z,6.30
2019-03-05T05:56:20.674Z,8.00
2019-03-05T05:58:50.082Z,7.77
2019-03-05T06:01:20.079Z,6.23
2019-03-05T06:03:49.944Z,6.87
2019-03-05T06:06:19.427Z,7.47
2019-03-05T06:08:49.067Z,7.33
2019-03-05T06:11:18.670Z,8.33
2019-03-05T06:13:48.213Z,5.83
2019-03-05T06:16:18.158Z,6.00
2019-03-05T06:18:47.851Z,8.60
2019-03-05T06:21:17.863Z,8.27
2019-03-05T06:23:48.635Z,6.60
2019-03-05T06:26:23.925Z,6.23
2019-03-05T06:28:53.353Z,9.20
2019-03-05T06:31:22.791Z,7.10
2019-03-05T06:33:52.635Z,8.40
2019-03-05T06:36:22.103Z,8.57
2019-03-05T06:38:51.614Z,8.20
2019-03-05T06:41:21.110Z,7.47
2019-03-05T06:43:50.618Z,9.50
2019-03-05T06:46:20.096Z,8.40
2019-03-05T06:48:49.974Z,10.83
2019-03-05T06:51:19.884Z,9.50
2019-03-05T06:53:49.338Z,6.77
2019-03-05T06:56:18.867Z,9.50
2019-03-05T06:58:48.349Z,6.60
2019-03-05T07:01:17.855Z,10.60
2019-03-05T07:03:47.342Z,9.33
2019-03-05T07:06:50.805Z,6.20
2019-03-05T07:09:46.355Z,7.37
2019-03-05T07:12:54.240Z,8.13
2019-03-05T07:15:50.643Z,2.50
2019-03-05T07:18:36.063Z,3.90
2019-03-05T07:21:53.230Z,3.00
2019-03-05T07:24:50.595Z,5.60
2019-03-05T07:27:53.176Z,7.77
2019-03-05T07:30:24.450Z,9.50
2019-03-05T07:32:54.978Z,7.63
2019-03-05T07:35:26.438Z,8.93
2019-03-05T07:37:56.442Z,11.20
2019-03-05T07:40:26.352Z,15.10
2019-03-05T07:42:55.826Z,14.57
2019-03-05T07:45:25.378Z,17.83
2019-03-05T07:47:55.187Z,12.37
2019-03-05T07:50:24.791Z,8.33
2019-03-05T07:52:54.283Z,7.77
2019-03-05T07:55:24.095Z,9.43
2019-03-05T07:57:53.591Z,9.10
2019-03-05T08:00:23.397Z,6.83
2019-03-05T08:02:52.825Z,8.60
2019-03-05T08:05:22.439Z,9.00
2019-03-05T08:07:52.250Z,10.87
2019-03-05T08:10:26.320Z,7.63
2019-03-05T08:13:37.121Z,8.03
2019-03-05T08:16:21.806Z,5.33
2019-03-05T08:18:51.288Z,7.43
2019-03-05T08:21:20.745Z,5.60
2019-03-05T08:23:50.300Z,5.00
2019-03-05T08:26:19.904Z,4.90
2019-03-05T08:28:49.354Z,6.70
2019-03-05T08:31:19.205Z,4.90
2019-03-05T08:33:49.831Z,6.63
2019-03-05T08:36:19.515Z,5.63
2019-03-05T08:38:49.324Z,6.60
2019-03-05T08:41:18.769Z,5.40
2019-03-05T08:43:48.622Z,7.67
2019-03-05T08:46:18.052Z,10.40
2019-03-05T08:48:47.514Z,9.70
2019-03-05T08:51:17.183Z,11.30
2019-03-05T08:53:49.782Z,8.47
2019-03-05T08:56:17.873Z,7.43
2019-03-05T08:58:47.278Z,7.03
2019-03-05T09:01:17.247Z,8.43
2019-03-05T09:03:47.199Z,8.33
2019-03-05T09:06:16.644Z,6.67
2019-03-05T09:08:46.128Z,7.47
2019-03-05T09:11:15.580Z,6.63
2019-03-05T09:13:45.158Z,6.87
2019-03-05T09:16:14.625Z,8.70
2019-03-05T09:18:44.067Z,9.50
2019-03-05T09:21:14.078Z,7.83
2019-03-05T09:23:43.522Z,10.10
2019-03-05T09:26:13.018Z,9.43
2019-03-05T09:28:42.470Z,7.70
2019-03-05T09:31:12.407Z,7.47
2019-03-05T09:33:41.890Z,9.30
2019-03-05T09:36:11.446Z,7.63
2019-03-05T09:38:40.898Z,6.93
2019-03-05T09:41:10.619Z,8.80
2019-03-05T09:43:40.229Z,6.30
2019-03-05T09:46:10.074Z,10.00
2019-03-05T09:48:39.975Z,10.10
2019-03-05T09:51:09.385Z,8.80
2019-03-05T09:53:38.774Z,9.17
2019-03-05T09:56:08.644Z,7.13
2019-03-05T09:58:38.563Z,10.33
2019-03-05T10:01:08.446Z,6.23
2019-03-05T10:03:37.915Z,6.67
2019-03-05T10:06:07.849Z,6.10
2019-03-05T10:08:37.708Z,7.40
2019-03-05T10:11:07.280Z,9.40
2019-03-05T10:13:37.083Z,6.90
2019-03-05T10:16:07.214Z,8.57
2019-03-05T10:18:39.233Z,7.33
2019-03-05T10:21:08.006Z,8.63
2019-03-05T10:23:37.466Z,6.90
2019-03-05T10:26:06.940Z,6.20
2019-03-05T10:28:36.574Z,8.87
2019-03-05T10:31:06.666Z,6.50
2019-03-05T10:33:36.152Z,7.73
2019-03-05T10:36:06.143Z,7.03
2019-03-05T10:38:35.614Z,9.30
2019-03-05T10:41:05.339Z,8.87
2019-03-05T10:43:35.066Z,6.60
2019-03-05T10:46:04.812Z,8.07
2019-03-05T10:48:34.294Z,7.83
2019-03-05T10:51:04.110Z,9.73
2019-03-05T10:53:33.894Z,8.30
2019-03-05T10:56:03.386Z,9.30
2019-03-05T10:58:34.407Z,9.30
2019-03-05T11:01:05.864Z,7.90
2019-03-05T11:03:35.638Z,7.77
2019-03-05T11:06:07.647Z,9.50
2019-03-05T11:08:37.135Z,7.83
2019-03-05T11:11:13.430Z,8.10
2019-03-05T11:13:38.114Z,9.30
2019-03-05T11:16:08.042Z,9.90
2019-03-05T11:18:39.471Z,12.60
2019-03-05T11:21:09.074Z,10.60
2019-03-05T11:23:38.917Z,8.70
2019-03-05T11:26:08.726Z,10.20
2019-03-05T11:28:38.517Z,7.47
2019-03-05T11:31:08.550Z,7.87
2019-03-05T11:33:38.053Z,7.73
2019-03-05T11:36:07.545Z,6.90
2019-03-05T11:38:36.998Z,6.80
2019-03-05T11:41:06.506Z,8.40
2019-03-05T11:43:35.996Z,9.10
2019-03-05T11:46:08.582Z,7.80
2019-03-05T11:48:38.334Z,6.60
2019-03-05T11:51:07.820Z,7.50
2019-03-05T11:53:37.282Z,7.43
2019-03-05T11:56:06.990Z,7.73
2019-03-05T11:58:36.434Z,8.23
2019-03-05T12:01:26.255Z,7.57
2019-03-05T12:03:55.775Z,7.80
2019-03-05T12:06:25.539Z,6.40
2019-03-05T12:08:54.951Z,10.87
2019-03-05T12:11:24.528Z,7.57
2019-03-05T12:13:55.290Z,9.10
2019-03-05T12:16:25.071Z,6.63
2019-03-05T12:18:54.650Z,5.80
2019-03-05T12:21:24.274Z,6.03
2019-03-05T12:23:53.705Z,6.83
2019-03-05T12:26:23.152Z,6.70
2019-03-05T12:28:52.647Z,8.23
2019-03-05T12:31:22.432Z,5.80
2019-03-05T12:33:52.377Z,6.13
2019-03-05T12:36:21.899Z,5.60
2019-03-05T12:38:51.568Z,6.93
2019-03-05T12:41:21.478Z,6.43
2019-03-05T12:43:50.943Z,5.27
2019-03-05T12:46:22.424Z,5.57
2019-03-05T12:48:52.648Z,6.13
2019-03-05T12:51:22.176Z,6.90
2019-03-05T12:53:51.655Z,5.70
2019-03-05T12:56:24.107Z,8.43
2019-03-05T12:58:52.178Z,5.10
2019-03-05T13:01:21.674Z,5.53
2019-03-05T13:03:51.162Z,4.57
2019-03-05T13:06:20.766Z,7.43
2019-03-05T13:08:50.718Z,6.10
2019-03-05T13:11:20.208Z,6.87
2019-03-05T13:13:51.352Z,6.03
2019-03-05T13:16:21.466Z,10.60
2019-03-05T13:18:50.958Z,10.67
2019-03-05T13:21:20.416Z,5.70
2019-03-05T13:23:51.649Z,5.13
2019-03-05T13:26:21.179Z,5.20
2019-03-05T13:28:50.647Z,4.20
2019-03-05T13:31:20.166Z,7.87
2019-03-05T13:33:49.676Z,5.77
2019-03-05T13:36:19.122Z,9.33
2019-03-05T13:38:48.952Z,4.10
2019-03-05T13:41:18.366Z,8.50
2019-03-05T13:43:47.853Z,7.00
2019-03-05T13:46:17.310Z,4.70
2019-03-05T13:49:40.671Z,4.27
2019-03-05T13:52:35.986Z,11.63
2019-03-05T13:55:49.051Z,5.40
2019-03-05T13:58:56.561Z,7.20
2019-03-05T14:01:28.438Z,4.47
2019-03-05T14:04:08.082Z,4.93
2019-03-05T14:07:23.050Z,4.33
2019-03-05T14:09:53.007Z,3.53
2019-03-05T14:12:22.508Z,7.47
2019-03-05T14:14:52.013Z,4.97
2019-03-05T14:17:26.523Z,7.70
2019-03-05T14:19:55.977Z,5.90
2019-03-05T14:22:26.247Z,3.73
2019-03-05T14:25:02.075Z,4.77
2019-03-05T14:27:27.129Z,3.93
2019-03-05T14:29:56.617Z,3.33
2019-03-05T14:32:26.254Z,3.23
2019-03-05T14:35:09.069Z,7.63
2019-03-05T14:37:38.628Z,4.03
2019-03-05T14:40:23.648Z,5.37
2019-03-05T14:42:42.487Z,5.23
2019-03-05T14:45:16.910Z,4.20
2019-03-05T14:47:46.385Z,3.00
2019-03-05T14:50:15.988Z,6.97
2019-03-05T14:52:45.810Z,6.30
2019-03-05T14:55:15.891Z,3.83
2019-03-05T14:57:45.765Z,7.63
2019-03-05T15:00:17.197Z,8.80
2019-03-05T15:02:46.827Z,4.30
2019-03-05T15:05:16.301Z,8.17
2019-03-05T15:07:46.076Z,4.70
2019-03-05T15:10:15.568Z,5.37
2019-03-05T15:12:45.204Z,5.13
2019-03-05T15:15:26.273Z,3.40
2019-03-05T15:17:55.758Z,8.17
2019-03-05T15:20:25.297Z,5.13
2019-03-05T15:22:54.762Z,4.07
2019-03-05T15:25:24.377Z,3.80
2019-03-05T15:27:53.881Z,7.47
2019-03-05T15:30:24.778Z,5.27
2019-03-05T15:32:54.796Z,4.30
2019-03-05T15:35:24.327Z,3.50
2019-03-05T15:37:53.794Z,2.93
2019-03-05T15:40:23.610Z,7.10
2019-03-05T15:42:53.191Z,3.27
2019-03-05T15:45:22.995Z,3.80
2019-03-05T15:47:52.558Z,2.50
2019-03-05T15:50:22.076Z,8.00
2019-03-05T15:52:51.566Z,5.47
2019-03-05T15:55:21.146Z,3.70
2019-03-05T15:57:51.067Z,6.50
2019-03-05T16:00:23.876Z,5.00
2019-03-05T16:02:53.716Z,5.60
2019-03-05T16:05:24.628Z,6.80
2019-03-05T16:07:54.142Z,7.90
2019-03-05T16:10:23.739Z,6.20
2019-03-05T16:12:53.190Z,3.20
2019-03-05T16:15:22.831Z,6.40
2019-03-05T16:17:54.328Z,2.97
2019-03-05T16:20:25.878Z,3.80
2019-03-05T16:22:56.748Z,3.50
2019-03-05T16:25:26.326Z,3.60
2019-03-05T16:27:55.792Z,6.47
2019-03-05T16:31:02.402Z,3.10
2019-03-05T16:33:38.680Z,5.03
2019-03-05T16:36:30.585Z,3.00
2019-03-05T16:39:19.804Z,4.27
2019-03-05T16:42:20.395Z,10.40
2019-03-05T16:45:07.315Z,4.30
2019-03-05T16:47:55.733Z,3.80
2019-03-05T16:50:43.040Z,4.50
2019-03-05T16:53:29.546Z,5.50
2019-03-05T16:56:11.315Z,5.30
2019-03-05T16:59:03.461Z,8.40
2019-03-05T17:01:47.939Z,6.27
2019-03-05T17:04:34.170Z,7.90
2019-03-05T17:07:28.671Z,7.00
2019-03-05T17:10:17.158Z,5.50
2019-03-05T17:13:01.940Z,10.57
2019-03-05T17:15:31.820Z,12.40
2019-03-05T17:18:01.490Z,8.80
2019-03-05T17:20:31.406Z,14.37
2019-03-05T17:23:01.693Z,14.13
2019-03-05T17:25:32.139Z,15.50
2019-03-05T17:28:02.098Z,13.50
2019-03-05T17:30:31.730Z,9.30
2019-03-05T17:33:01.262Z,13.10
2019-03-05T17:35:31.064Z,10.43
2019-03-05T17:38:00.502Z,9.57
2019-03-05T17:40:29.995Z,9.80
2019-03-05T17:42:59.371Z,8.57
2019-03-05T17:45:28.924Z,8.73
2019-03-05T17:47:58.858Z,6.70
2019-03-05T17:50:28.436Z,7.23
2019-03-05T17:52:57.882Z,11.13
2019-03-05T17:55:27.556Z,9.00
2019-03-05T17:57:56.998Z,9.23
2019-03-05T18:00:31.437Z,8.27
2019-03-05T18:03:00.886Z,6.00
2019-03-05T18:05:30.777Z,8.20
2019-03-05T18:08:00.727Z,8.60
2019-03-05T18:10:30.233Z,8.07
2019-03-05T18:13:00.530Z,9.73
2019-03-05T18:15:30.939Z,7.70
2019-03-05T18:18:00.569Z,6.03
2019-03-05T18:20:30.064Z,7.57
2019-03-05T18:22:59.685Z,7.73
2019-03-05T18:25:29.302Z,11.03
2019-03-05T18:27:59.175Z,13.20
2019-03-05T18:30:29.083Z,20.13
2019-03-05T18:32:58.853Z,13.83
2019-03-05T18:35:28.375Z,9.10
2019-03-05T18:37:58.050Z,11.33
2019-03-05T18:40:27.513Z,10.60
2019-03-05T18:42:56.990Z,12.87
2019-03-05T18:45:28.011Z,8.73
2019-03-05T18:47:57.485Z,11.30
2019-03-05T18:50:27.007Z,9.20
2019-03-05T18:52:56.733Z,12.27
2019-03-05T18:55:26.159Z,9.53
2019-03-05T18:57:55.662Z,11.77
2019-03-05T19:00:25.102Z,10.43
2019-03-05T19:02:55.206Z,11.47
2019-03-05T19:05:25.015Z,13.33
2019-03-05T19:07:55.014Z,12.70
2019-03-05T19:10:25.226Z,10.87
2019-03-05T19:12:54.634Z,12.07
2019-03-05T19:15:24.239Z,13.03
2019-03-05T19:17:53.724Z,11.30
2019-03-05T19:20:24.120Z,10.63
2019-03-05T19:22:53.570Z,13.10
2019-03-05T19:25:25.133Z,14.90
2019-03-05T19:27:55.063Z,12.83
2019-03-05T19:30:27.263Z,19.43
2019-03-05T19:32:56.940Z,11.60
2019-03-05T19:35:26.654Z,11.30
2019-03-05T19:37:56.301Z,17.37
2019-03-05T19:40:28.329Z,15.97
2019-03-05T19:42:57.992Z,10.43
2019-03-05T19:45:28.045Z,15.20
2019-03-05T19:47:58.223Z,11.60
2019-03-05T19:50:27.834Z,13.47
2019-03-05T19:52:58.142Z,12.50
2019-03-05T19:55:27.845Z,17.30
2019-03-05T19:58:10.409Z,13.00
2019-03-05T20:00:47.828Z,14.10
2019-03-05T20:03:20.339Z,12.10
2019-03-05T20:05:50.045Z,12.00
2019-03-05T20:08:20.771Z,18.43
2019-03-05T20:10:50.450Z,14.40
2019-03-05T20:13:20.639Z,11.73
2019-03-05T20:15:50.711Z,10.77
2019-03-05T20:18:21.842Z,12.93
2019-03-05T20:20:54.335Z,12.50
2019-03-05T20:23:24.588Z,14.50
2019-03-05T20:25:56.280Z,16.37
2019-03-05T20:28:25.914Z,16.80
2019-03-05T20:30:56.049Z,12.60
2019-03-05T20:33:26.289Z,13.63
2019-03-05T20:35:57.132Z,14.33
2019-03-05T20:38:26.950Z,13.70
2019-03-05T20:40:56.640Z,14.83
2019-03-05T20:43:26.377Z,12.97
2019-03-05T20:45:59.666Z,12.77
2019-03-05T20:48:29.330Z,11.87
2019-03-05T20:50:59.562Z,14.23
2019-03-05T20:53:29.242Z,17.80
2019-03-05T20:55:59.235Z,20.30
2019-03-05T20:58:29.219Z,14.60
2019-03-05T21:00:59.428Z,13.70
2019-03-05T21:03:29.658Z,13.10
2019-03-05T21:06:00.236Z,11.37
2019-03-05T21:08:29.821Z,9.73
2019-03-05T21:10:59.627Z,11.80
2019-03-05T21:13:29.507Z,13.87
2019-03-05T21:15:59.275Z,14.47
2019-03-05T21:18:29.212Z,14.77
2019-03-05T21:20:58.637Z,9.87
2019-03-05T21:23:28.948Z,11.40
2019-03-05T21:25:58.878Z,14.33
2019-03-05T21:28:29.203Z,10.10
2019-03-05T21:30:58.822Z,10.13
2019-03-05T21:33:28.628Z,11.50
2019-03-05T21:35:58.225Z,11.17
2019-03-05T21:38:27.953Z,10.37
2019-03-05T21:40:58.461Z,9.90
2019-03-05T21:43:28.479Z,8.43
2019-03-05T21:46:00.650Z,7.90
2019-03-05T21:48:31.125Z,8.23
2019-03-05T21:51:00.694Z,10.20
2019-03-05T21:53:30.314Z,10.17
2019-03-05T21:56:00.401Z,9.20
2019-03-05T21:58:30.884Z,7.53
2019-03-05T22:01:00.517Z,8.60
2019-03-05T22:03:30.106Z,8.17
2019-03-05T22:06:04.063Z,6.80
2019-03-05T22:08:33.614Z,8.07
2019-03-05T22:11:03.678Z,8.00
2019-03-05T22:13:33.406Z,10.27
2019-03-05T22:16:09.326Z,9.33
2019-03-05T22:18:40.579Z,6.83
2019-03-05T22:21:10.815Z,6.40
2019-03-05T22:23:40.768Z,6.43
2019-03-05T22:26:10.869Z,8.00
2019-03-05T22:28:41.022Z,9.90
2019-03-05T22:31:10.594Z,6.30
2019-03-05T22:33:40.042Z,9.27
2019-03-05T22:36:09.690Z,7.93
2019-03-05T22:38:39.389Z,11.43
2019-03-05T22:41:09.378Z,8.73
2019-03-05T22:43:39.622Z,6.43
2019-03-05T22:46:09.135Z,6.23
2019-03-05T22:48:38.868Z,8.13
2019-03-05T22:51:08.303Z,9.63
2019-03-05T22:53:37.809Z,8.67
2019-03-05T22:56:07.337Z,8.23
2019-03-05T22:58:37.603Z,5.87
2019-03-05T23:01:17.399Z,6.30
2019-03-05T23:03:54.794Z,7.77
2019-03-05T23:06:24.754Z,8.47
2019-03-05T23:08:54.240Z,6.50
2019-03-05T23:11:23.703Z,7.40
2019-03-05T23:13:54.011Z,5.53
2019-03-05T23:16:23.998Z,8.00
2019-03-05T23:18:53.558Z,6.30
2019-03-05T23:21:23.494Z,5.20
2019-03-05T23:23:53.196Z,6.03
2019-03-05T23:26:22.838Z,5.07
2019-03-05T23:28:52.376Z,8.33
2019-03-05T23:31:21.977Z,10.03
2019-03-05T23:33:52.164Z,6.80
2019-03-05T23:36:22.042Z,9.43
2019-03-05T23:38:51.585Z,8.57
2019-03-05T23:41:21.140Z,9.37
2019-03-05T23:43:50.613Z,7.87
2019-03-05T23:46:20.064Z,8.80
2019-03-05T23:48:49.963Z,9.23
2019-03-05T23:51:19.594Z,7.10
2019-03-05T23:53:49.115Z,8.73
2019-03-05T23:56:18.953Z,8.93
2019-03-05T23:58:48.452Z,7.10
